Chicota, Texas
Current Conditions -  °F | °C
As of 12:15 PM on Sunday 25 Jan 2015 (Local Time) from KHHW Reporting Station
Scattered Clouds Scattered Clouds  
Wind Chill: 60°   Ceiling: Unl
Heat Index: 60°   Visibility: 10mi
Dew Point: 32°   Wind: 20mph
Humidity: 34%   Direction: 320°NW
Pressure: 29.93"   Gusts: 31mph
Location:  33.87°N, 95.57°W
Report Text: KHHW 251815Z AUTO 32017G27KT 10SM SCT055 16/00 A2993 RMK AO2 T01561002
Loading
Personal Weather Stations






























Interactive Weather Map New forecast layout! Learn more

10-Day Weather Forecast

Advertisements
Track Severe Weather on mobile